createdAt,value
2023-03-12T00:02:11.850Z,13.10
2023-03-12T00:04:38.470Z,14.00
2023-03-12T00:07:05.183Z,14.25
2023-03-12T00:09:35.329Z,13.25
2023-03-12T00:12:02.015Z,12.40
2023-03-12T00:14:28.706Z,13.18
2023-03-12T00:16:55.393Z,13.37
2023-03-12T00:19:22.252Z,15.48
2023-03-12T00:21:48.939Z,12.57
2023-03-12T00:24:15.576Z,14.32
2023-03-12T00:26:43.612Z,15.07
2023-03-12T00:29:10.398Z,12.07
2023-03-12T00:31:37.149Z,15.13
2023-03-12T00:34:03.880Z,14.40
2023-03-12T00:36:32.330Z,14.98
2023-03-12T00:39:00.467Z,13.05
2023-03-12T00:41:28.077Z,12.47
2023-03-12T00:43:56.449Z,15.43
2023-03-12T00:46:23.590Z,15.48
2023-03-12T00:48:50.774Z,13.23
2023-03-12T00:51:17.600Z,11.77
2023-03-12T00:53:44.398Z,13.07
2023-03-12T00:56:11.032Z,12.93
2023-03-12T00:58:37.681Z,13.88
2023-03-12T01:01:06.282Z,16.98
2023-03-12T01:03:33.291Z,13.88
2023-03-12T01:05:59.910Z,13.73
2023-03-12T01:08:26.636Z,12.65
2023-03-12T01:10:53.424Z,12.80
2023-03-12T01:13:20.943Z,13.90
2023-03-12T01:15:47.604Z,13.07
2023-03-12T01:18:15.676Z,14.23
2023-03-12T01:20:42.361Z,12.25
2023-03-12T01:23:09.690Z,13.30
2023-03-12T01:25:36.610Z,13.60
2023-03-12T01:28:03.655Z,12.85
2023-03-12T01:30:30.478Z,14.53
2023-03-12T01:32:57.208Z,14.05
2023-03-12T01:35:26.021Z,12.77
2023-03-12T01:37:52.828Z,14.35
2023-03-12T01:40:20.733Z,14.43
2023-03-12T01:42:52.503Z,12.40
2023-03-12T01:46:07.815Z,12.02
2023-03-12T01:48:39.400Z,13.70
2023-03-12T01:51:08.802Z,11.93
2023-03-12T01:53:35.698Z,12.98
2023-03-12T01:56:03.187Z,12.33
2023-03-12T01:58:33.191Z,13.77
2023-03-12T02:01:00.286Z,15.93
2023-03-12T02:03:28.452Z,15.27
2023-03-12T02:05:59.612Z,13.93
2023-03-12T02:08:28.326Z,14.20
2023-03-12T02:10:55.029Z,15.18
2023-03-12T02:13:21.904Z,15.70
2023-03-12T02:15:48.800Z,13.57
2023-03-12T02:18:17.852Z,13.18
2023-03-12T02:20:50.639Z,15.60
2023-03-12T02:23:26.295Z,14.95
2023-03-12T02:25:55.230Z,14.93
2023-03-12T02:28:24.852Z,13.82
2023-03-12T02:30:53.978Z,12.18
2023-03-12T02:33:20.699Z,18.10
2023-03-12T02:35:48.127Z,12.73
2023-03-12T02:38:36.587Z,12.23
2023-03-12T02:41:17.753Z,15.90
2023-03-12T02:43:46.585Z,15.18
2023-03-12T02:46:14.539Z,14.33
2023-03-12T02:48:41.646Z,17.55
2023-03-12T02:51:08.746Z,12.60
2023-03-12T02:53:35.493Z,14.05
2023-03-12T02:56:02.251Z,13.52
2023-03-12T02:58:30.306Z,16.40
2023-03-12T03:00:57.029Z,12.43
2023-03-12T03:03:23.660Z,16.45
2023-03-12T03:05:50.414Z,17.73
2023-03-12T03:08:17.054Z,12.90
2023-03-12T03:10:43.793Z,16.30
2023-03-12T03:13:10.432Z,11.90
2023-03-12T03:15:38.509Z,14.23
2023-03-12T03:18:05.781Z,15.98
2023-03-12T03:20:32.445Z,15.10
2023-03-12T03:22:59.058Z,12.57
2023-03-12T03:25:25.905Z,13.20
2023-03-12T03:27:52.552Z,14.35
2023-03-12T03:30:19.451Z,13.13
2023-03-12T03:32:47.748Z,13.93
2023-03-12T03:35:14.632Z,14.70
2023-03-12T03:37:41.340Z,11.23
2023-03-12T03:40:09.393Z,13.05
2023-03-12T03:42:36.071Z,17.63
2023-03-12T03:45:03.180Z,14.00
2023-03-12T03:47:29.841Z,13.77
2023-03-12T03:49:57.825Z,13.93
2023-03-12T03:52:24.569Z,12.95
2023-03-12T03:54:51.193Z,15.50
2023-03-12T03:57:17.854Z,13.32
2023-03-12T03:59:44.525Z,13.07
2023-03-12T04:02:11.114Z,15.25
2023-03-12T04:04:37.780Z,15.43
2023-03-12T04:07:05.809Z,16.80
2023-03-12T04:09:32.750Z,13.95
2023-03-12T04:11:59.358Z,14.13
2023-03-12T04:14:26.267Z,20.02
2023-03-12T04:16:52.943Z,13.93
2023-03-12T04:19:19.709Z,13.48
2023-03-12T04:21:46.397Z,18.33
2023-03-12T04:24:16.622Z,11.70
2023-03-12T04:26:43.345Z,12.45
2023-03-12T04:29:10.073Z,14.98
2023-03-12T04:31:36.836Z,12.55
2023-03-12T04:34:03.724Z,15.23
2023-03-12T04:36:30.619Z,13.07
2023-03-12T04:38:57.222Z,14.52
2023-03-12T04:41:25.354Z,16.02
2023-03-12T04:43:51.998Z,17.83
2023-03-12T04:46:18.899Z,15.45
2023-03-12T04:48:45.538Z,13.30
2023-03-12T04:51:12.205Z,11.65
2023-03-12T04:53:38.920Z,11.63
2023-03-12T04:56:06.163Z,17.55
2023-03-12T04:58:34.435Z,12.13
2023-03-12T05:01:01.207Z,12.00
2023-03-12T05:03:28.295Z,13.35
2023-03-12T05:05:54.955Z,13.10
2023-03-12T05:08:21.569Z,10.32
2023-03-12T05:10:48.247Z,15.23
2023-03-12T05:13:15.955Z,13.57
2023-03-12T05:15:44.455Z,11.10
2023-03-12T05:18:11.376Z,12.82
2023-03-12T05:20:38.002Z,17.83
2023-03-12T05:23:04.643Z,12.65
2023-03-12T05:25:31.411Z,11.70
2023-03-12T05:27:58.229Z,15.25
2023-03-12T05:30:25.059Z,12.60
2023-03-12T05:32:53.138Z,15.00
2023-03-12T05:35:19.836Z,11.90
2023-03-12T05:37:46.576Z,15.33
2023-03-12T05:40:14.095Z,12.23
2023-03-12T05:42:40.912Z,14.13
2023-03-12T05:45:08.810Z,15.63
2023-03-12T05:47:35.592Z,14.45
2023-03-12T05:50:04.148Z,14.17
2023-03-12T05:52:30.865Z,15.50
2023-03-12T05:54:57.498Z,20.05
2023-03-12T05:57:24.170Z,16.35
2023-03-12T05:59:50.857Z,14.40
2023-03-12T06:02:17.645Z,11.37
2023-03-12T06:04:44.301Z,14.05
2023-03-12T06:07:12.307Z,14.15
2023-03-12T06:09:38.970Z,14.50
2023-03-12T06:12:05.931Z,12.77
2023-03-12T06:14:32.675Z,12.77
2023-03-12T06:16:59.406Z,12.35
2023-03-12T06:19:26.279Z,13.90
2023-03-12T06:21:52.879Z,16.30
2023-03-12T06:24:21.206Z,13.55
2023-03-12T06:26:47.828Z,12.90
2023-03-12T06:29:14.643Z,11.82
2023-03-12T06:31:41.419Z,16.08
2023-03-12T06:34:08.470Z,11.63
2023-03-12T06:36:35.164Z,12.88
2023-03-12T06:39:01.816Z,12.30
2023-03-12T06:41:29.835Z,15.25
2023-03-12T06:43:56.471Z,11.95
2023-03-12T06:46:23.232Z,11.00
2023-03-12T06:48:49.974Z,10.55
2023-03-12T06:51:17.120Z,14.13
2023-03-12T06:53:44.306Z,17.52
2023-03-12T06:56:12.053Z,14.63
2023-03-12T06:58:40.661Z,12.25
2023-03-12T07:01:07.765Z,15.52
2023-03-12T07:03:34.710Z,12.10
2023-03-12T07:06:01.901Z,11.57
2023-03-12T07:08:29.105Z,11.82
2023-03-12T07:10:55.791Z,12.25
2023-03-12T07:13:22.414Z,13.25
2023-03-12T07:15:50.747Z,12.70
2023-03-12T07:18:17.554Z,12.27
2023-03-12T07:20:44.294Z,11.45
2023-03-12T07:23:11.545Z,10.35
2023-03-12T07:25:39.803Z,10.57
2023-03-12T07:28:07.101Z,12.27
2023-03-12T07:30:34.071Z,11.20
2023-03-12T07:33:02.752Z,14.00
2023-03-12T07:35:30.501Z,12.60
2023-03-12T07:37:57.650Z,13.23
2023-03-12T07:40:24.516Z,11.30
2023-03-12T07:42:51.890Z,10.60
2023-03-12T07:45:19.470Z,13.98
2023-03-12T07:47:46.367Z,12.32
2023-03-12T07:50:14.632Z,10.63
2023-03-12T07:52:41.437Z,10.43
2023-03-12T07:55:09.158Z,11.32
2023-03-12T07:57:36.029Z,11.00
2023-03-12T08:00:03.304Z,16.60
2023-03-12T08:02:30.185Z,13.90
2023-03-12T08:04:56.977Z,12.00
2023-03-12T08:07:25.089Z,13.82
2023-03-12T08:09:51.819Z,12.18
2023-03-12T08:12:18.525Z,10.02
2023-03-12T08:14:45.292Z,14.25
2023-03-12T08:17:11.956Z,10.23
2023-03-12T08:19:38.808Z,12.50
2023-03-12T08:22:06.992Z,10.93
2023-03-12T08:24:35.367Z,12.55
2023-03-12T08:27:02.284Z,12.68
2023-03-12T08:29:28.931Z,12.57
2023-03-12T08:32:04.438Z,8.43
2023-03-12T08:34:31.823Z,9.85
2023-03-12T08:36:58.542Z,13.18
2023-03-12T08:39:25.373Z,12.88
2023-03-12T08:41:53.396Z,11.77
2023-03-12T08:44:20.021Z,12.63
2023-03-12T08:46:46.885Z,9.65
2023-03-12T08:49:13.802Z,9.60
2023-03-12T08:51:40.617Z,9.60
2023-03-12T08:54:07.278Z,10.43
2023-03-12T08:56:33.942Z,7.53
2023-03-12T08:59:02.108Z,11.70
2023-03-12T09:01:28.719Z,12.75
2023-03-12T09:03:55.450Z,10.25
2023-03-12T09:06:22.148Z,12.23
2023-03-12T09:08:48.900Z,9.82
2023-03-12T09:11:18.546Z,10.63
2023-03-12T09:14:09.971Z,10.70
2023-03-12T09:16:33.674Z,11.15
2023-03-12T09:19:00.447Z,11.53
2023-03-12T09:21:27.149Z,10.20
2023-03-12T09:23:53.873Z,9.80
2023-03-12T09:26:23.330Z,10.32
2023-03-12T09:28:50.266Z,11.63
2023-03-12T09:31:16.964Z,14.25
2023-03-12T09:33:45.238Z,8.68
2023-03-12T09:36:11.973Z,13.73
2023-03-12T09:38:38.708Z,11.20
2023-03-12T09:41:12.934Z,9.25
2023-03-12T09:43:42.825Z,11.57
2023-03-12T09:46:14.639Z,9.82
2023-03-12T09:48:42.007Z,14.13
2023-03-12T09:51:18.529Z,10.73
2023-03-12T09:53:49.191Z,10.95
2023-03-12T09:56:18.403Z,12.13
2023-03-12T09:58:46.644Z,12.52
2023-03-12T10:01:32.449Z,11.05
2023-03-12T10:04:20.927Z,12.02
2023-03-12T10:06:53.429Z,13.30
2023-03-12T10:09:37.918Z,11.27
2023-03-12T10:12:14.735Z,10.07
2023-03-12T10:14:52.796Z,12.27
2023-03-12T10:17:31.684Z,10.70
2023-03-12T10:20:29.108Z,10.82
2023-03-12T10:23:03.298Z,10.93
2023-03-12T10:25:36.355Z,8.75
2023-03-12T10:28:13.715Z,8.82
2023-03-12T10:30:42.864Z,9.90
2023-03-12T10:33:13.724Z,8.85
2023-03-12T10:35:40.709Z,11.48
2023-03-12T10:38:14.792Z,10.40
2023-03-12T10:40:41.504Z,8.65
2023-03-12T10:43:08.273Z,8.98
2023-03-12T10:45:41.862Z,11.82
2023-03-12T10:48:13.022Z,8.95
2023-03-12T10:50:40.629Z,10.30
2023-03-12T10:53:23.493Z,10.30
2023-03-12T10:56:02.393Z,8.43
2023-03-12T10:58:33.154Z,8.77
2023-03-12T11:01:01.917Z,8.43
2023-03-12T11:03:29.645Z,7.68
2023-03-12T11:05:59.740Z,7.47
2023-03-12T11:08:29.444Z,8.20
2023-03-12T11:10:57.842Z,8.05
2023-03-12T11:13:27.915Z,9.95
2023-03-12T11:15:55.868Z,9.82
2023-03-12T11:18:40.381Z,8.18
2023-03-12T11:21:18.905Z,11.38
2023-03-12T11:24:05.037Z,9.38
2023-03-12T11:26:36.594Z,7.70
2023-03-12T11:29:07.229Z,6.38
2023-03-12T11:31:37.612Z,8.45
2023-03-12T11:34:07.857Z,10.25
2023-03-12T11:36:49.599Z,9.27
2023-03-12T11:39:26.399Z,9.30
2023-03-12T11:42:17.605Z,7.47
2023-03-12T11:44:57.030Z,7.78
2023-03-12T11:47:39.809Z,10.50
2023-03-12T11:50:29.848Z,8.43
2023-03-12T11:53:13.866Z,9.85
2023-03-12T11:55:54.658Z,10.30
2023-03-12T11:58:34.945Z,8.07
2023-03-12T12:01:09.705Z,9.20
2023-03-12T12:04:23.685Z,10.80
2023-03-12T12:07:02.213Z,8.02
2023-03-12T12:09:36.818Z,10.05
2023-03-12T12:12:16.454Z,9.60
2023-03-12T12:14:57.142Z,8.48
2023-03-12T12:17:34.073Z,10.55
2023-03-12T12:20:14.449Z,12.38
2023-03-12T12:22:51.836Z,9.75
2023-03-12T12:25:34.116Z,8.63
2023-03-12T12:28:18.106Z,11.73
2023-03-12T12:30:58.898Z,10.23
2023-03-12T12:33:35.334Z,9.82
2023-03-12T12:36:02.689Z,11.80
2023-03-12T12:38:33.899Z,15.60
2023-03-12T12:41:07.863Z,12.43
2023-03-12T12:43:38.217Z,10.77
2023-03-12T12:46:08.650Z,13.65
2023-03-12T12:48:38.709Z,12.55
2023-03-12T12:51:08.937Z,11.57
2023-03-12T12:53:43.383Z,12.23
2023-03-12T12:56:17.427Z,12.88
2023-03-12T12:59:05.794Z,14.43
2023-03-12T13:01:35.078Z,16.27
2023-03-12T13:04:06.901Z,16.25
2023-03-12T13:06:55.357Z,13.38
2023-03-12T13:09:23.786Z,14.63
2023-03-12T13:11:50.606Z,19.37
2023-03-12T13:17:31.280Z,18.88
2023-03-12T13:20:01.947Z,18.75
2023-03-12T13:22:58.156Z,17.60
2023-03-12T13:25:34.602Z,22.83
2023-03-12T13:28:16.970Z,18.30
2023-03-12T13:30:49.328Z,18.48
2023-03-12T13:33:18.916Z,20.80
2023-03-12T13:36:04.618Z,20.17
2023-03-12T13:38:37.354Z,25.13
2023-03-12T13:41:07.500Z,19.60
2023-03-12T13:43:55.129Z,30.80
2023-03-12T13:46:39.098Z,23.60
2023-03-12T13:49:12.634Z,22.98
2023-03-12T13:51:57.810Z,20.67
2023-03-12T13:54:29.434Z,28.92
2023-03-12T13:56:59.885Z,25.10
2023-03-12T13:59:27.788Z,25.67
2023-03-12T14:01:57.807Z,28.02
2023-03-12T14:04:32.821Z,25.30
2023-03-12T14:07:15.680Z,23.00
2023-03-12T14:09:52.606Z,25.00
2023-03-12T14:12:26.447Z,27.50
2023-03-12T14:15:18.398Z,27.80
2023-03-12T14:17:45.502Z,21.50
2023-03-12T14:20:18.908Z,27.55
2023-03-12T14:22:50.766Z,23.88
2023-03-12T14:25:26.519Z,28.48
2023-03-12T14:27:53.472Z,27.88
2023-03-12T14:30:24.565Z,31.40
2023-03-12T14:32:56.922Z,32.13
2023-03-12T14:35:27.941Z,32.53
2023-03-12T14:37:58.856Z,35.30
2023-03-12T14:40:36.402Z,31.27
2023-03-12T14:43:03.031Z,28.93
2023-03-12T14:45:29.719Z,31.58
2023-03-12T14:47:57.884Z,39.85
2023-03-12T14:50:28.644Z,31.75
2023-03-12T14:52:56.189Z,31.35
2023-03-12T14:55:24.796Z,27.90
2023-03-12T14:58:03.701Z,34.45
2023-03-12T15:00:30.334Z,49.88
2023-03-12T15:03:00.360Z,40.28
2023-03-12T15:05:28.424Z,33.05
2023-03-12T15:08:00.758Z,22.90
2023-03-12T15:10:29.512Z,22.70
2023-03-12T15:12:59.189Z,27.10
2023-03-12T15:15:39.260Z,33.58
2023-03-12T15:18:08.122Z,24.00
2023-03-12T15:20:36.411Z,28.53
2023-03-12T15:23:04.688Z,23.67
2023-03-12T15:25:34.044Z,23.67
2023-03-12T15:28:06.579Z,26.67
2023-03-12T15:30:34.441Z,23.45
2023-03-12T15:33:05.991Z,22.93
2023-03-12T15:35:32.977Z,21.02
2023-03-12T15:38:02.231Z,22.75
2023-03-12T15:40:30.617Z,27.33
2023-03-12T15:42:59.484Z,19.67
2023-03-12T15:45:34.685Z,20.73
2023-03-12T15:48:02.367Z,19.77
2023-03-12T15:50:32.744Z,22.95
2023-03-12T15:53:03.841Z,24.80
2023-03-12T15:55:32.440Z,20.35
2023-03-12T15:57:59.627Z,21.93
2023-03-12T16:00:41.306Z,19.35
2023-03-12T16:03:16.562Z,19.65
2023-03-12T16:05:43.592Z,20.15
2023-03-12T16:08:15.082Z,18.23
2023-03-12T16:10:42.073Z,21.43
2023-03-12T16:13:14.749Z,16.83
2023-03-12T16:15:41.816Z,21.80
2023-03-12T16:18:13.161Z,23.77
2023-03-12T16:20:40.420Z,28.88
2023-03-12T16:23:07.128Z,29.60
2023-03-12T16:25:35.855Z,22.48
2023-03-12T16:28:04.800Z,24.48
2023-03-12T16:30:33.121Z,29.17
2023-03-12T16:33:01.437Z,24.27
2023-03-12T16:35:28.797Z,19.87
2023-03-12T16:37:55.785Z,20.40
2023-03-12T16:40:32.832Z,18.40
2023-03-12T16:43:03.089Z,19.38
2023-03-12T16:45:30.698Z,16.85
2023-03-12T16:47:59.440Z,17.77
2023-03-12T16:50:27.727Z,22.25
2023-03-12T16:52:54.450Z,17.27
2023-03-12T16:55:23.228Z,16.33
2023-03-12T16:57:52.992Z,18.98
2023-03-12T17:00:22.945Z,15.60
2023-03-12T17:02:50.489Z,14.50
2023-03-12T17:05:17.353Z,16.30
2023-03-12T17:07:43.966Z,13.93
2023-03-12T17:10:11.753Z,17.38
2023-03-12T17:12:39.960Z,13.77
2023-03-12T17:15:13.150Z,15.48
2023-03-12T17:17:41.274Z,17.77
2023-03-12T17:20:10.363Z,14.35
2023-03-12T17:22:37.149Z,18.17
2023-03-12T17:25:04.701Z,19.03
2023-03-12T17:27:31.475Z,16.48
2023-03-12T17:29:58.159Z,15.95
2023-03-12T17:32:25.389Z,17.95
2023-03-12T17:34:56.435Z,16.63
2023-03-12T17:37:23.133Z,17.90
2023-03-12T17:39:51.067Z,16.73
2023-03-12T17:42:17.734Z,18.55
2023-03-12T17:44:44.374Z,20.25
2023-03-12T17:47:11.029Z,20.10
2023-03-12T17:49:37.654Z,19.87
2023-03-12T17:52:05.702Z,22.75
2023-03-12T17:54:32.350Z,22.27
2023-03-12T17:56:59.028Z,22.00
2023-03-12T17:59:25.680Z,16.75
2023-03-12T18:01:54.612Z,17.17
2023-03-12T18:04:21.289Z,19.70
2023-03-12T18:06:48.182Z,19.13
2023-03-12T18:09:16.250Z,17.95
2023-03-12T18:11:43.354Z,15.52
2023-03-12T18:14:10.058Z,19.07
2023-03-12T18:16:36.741Z,17.60
2023-03-12T18:19:03.537Z,19.27
2023-03-12T18:21:30.158Z,19.20
2023-03-12T18:23:59.432Z,16.80
2023-03-12T18:26:30.767Z,19.10
2023-03-12T18:28:57.389Z,18.25
2023-03-12T18:31:24.057Z,16.27
2023-03-12T18:33:50.714Z,18.45
2023-03-12T18:36:17.340Z,15.07
2023-03-12T18:38:44.122Z,18.60
2023-03-12T18:41:12.136Z,17.13
2023-03-12T18:43:40.396Z,21.92
2023-03-12T18:46:07.898Z,15.82
2023-03-12T18:48:34.937Z,20.40
2023-03-12T18:51:01.702Z,19.43
2023-03-12T18:53:28.341Z,13.93
2023-03-12T18:55:56.303Z,18.63
2023-03-12T18:58:24.345Z,16.67
2023-03-12T19:00:52.808Z,18.17
2023-03-12T19:03:19.882Z,14.43
2023-03-12T19:05:46.695Z,16.95
2023-03-12T19:08:13.888Z,16.48
2023-03-12T19:10:41.073Z,13.93
2023-03-12T19:13:07.748Z,17.90
2023-03-12T19:15:37.558Z,12.27
2023-03-12T19:18:06.124Z,17.00
2023-03-12T19:20:32.870Z,18.90
2023-03-12T19:22:59.512Z,15.50
2023-03-12T19:25:26.301Z,15.75
2023-03-12T19:27:52.947Z,16.53
2023-03-12T19:30:19.806Z,14.73
2023-03-12T19:32:46.493Z,18.52
2023-03-12T19:35:15.054Z,18.17
2023-03-12T19:37:42.204Z,64.28
2023-03-12T19:40:10.076Z,33.50
2023-03-12T19:42:36.710Z,31.25
2023-03-12T19:45:03.757Z,18.58
2023-03-12T19:47:30.432Z,20.90
2023-03-12T19:49:58.074Z,18.15
2023-03-12T19:52:26.230Z,15.57
2023-03-12T19:55:03.892Z,15.15
2023-03-12T19:57:31.706Z,17.77
2023-03-12T19:59:58.455Z,37.25
2023-03-12T20:02:25.213Z,18.60
2023-03-12T20:04:51.868Z,38.73
2023-03-12T20:07:18.561Z,43.10
2023-03-12T20:09:46.606Z,24.38
2023-03-12T20:12:13.242Z,21.20
2023-03-12T20:14:42.544Z,62.85
2023-03-12T20:17:09.498Z,30.30
2023-03-12T20:19:36.111Z,19.63
2023-03-12T20:22:02.753Z,24.10
2023-03-12T20:24:29.380Z,21.88
2023-03-12T20:26:57.448Z,17.02
2023-03-12T20:29:24.201Z,16.27
2023-03-12T20:31:50.983Z,14.63
2023-03-12T20:34:17.728Z,16.23
2023-03-12T20:36:44.410Z,19.15
2023-03-12T20:39:11.112Z,19.60
2023-03-12T20:41:38.823Z,17.07
2023-03-12T20:44:09.852Z,16.60
2023-03-12T20:46:36.489Z,15.32
2023-03-12T20:49:03.174Z,17.08
2023-03-12T20:51:29.861Z,16.88
2023-03-12T20:53:57.467Z,18.50
2023-03-12T20:56:24.121Z,12.40
2023-03-12T20:58:50.790Z,16.88
2023-03-12T21:01:31.814Z,16.95
2023-03-12T21:03:58.850Z,11.45
2023-03-12T21:06:25.858Z,13.40
2023-03-12T21:08:54.989Z,19.85
2023-03-12T21:11:21.717Z,17.13
2023-03-12T21:13:48.415Z,16.08
2023-03-12T21:16:15.083Z,18.60
2023-03-12T21:18:43.095Z,20.93
2023-03-12T21:21:10.051Z,22.80
2023-03-12T21:23:36.955Z,17.85
2023-03-12T21:26:08.607Z,16.83
2023-03-12T21:28:35.796Z,13.73
2023-03-12T21:31:06.419Z,12.20
2023-03-12T21:33:33.642Z,16.27
2023-03-12T21:36:04.089Z,21.05
2023-03-12T21:38:30.720Z,17.20
2023-03-12T21:40:57.367Z,14.00
2023-03-12T21:43:24.078Z,13.57
2023-03-12T21:45:50.859Z,11.90
2023-03-12T21:48:17.603Z,16.65
2023-03-12T21:50:44.305Z,17.17
2023-03-12T21:53:23.322Z,15.02
2023-03-12T21:56:01.544Z,18.87
2023-03-12T21:58:28.928Z,23.08
2023-03-12T22:01:02.920Z,20.52
2023-03-12T22:03:29.661Z,17.00
2023-03-12T22:05:56.276Z,16.02
2023-03-12T22:08:24.439Z,13.10
2023-03-12T22:10:51.097Z,13.95
2023-03-12T22:13:17.842Z,14.50
2023-03-12T22:15:52.652Z,14.02
2023-03-12T22:18:19.385Z,16.67
2023-03-12T22:20:50.484Z,17.10
2023-03-12T22:23:17.169Z,15.80
2023-03-12T22:25:45.257Z,16.55
2023-03-12T22:28:12.181Z,15.30
2023-03-12T22:30:38.829Z,15.18
2023-03-12T22:33:05.567Z,16.10
2023-03-12T22:35:32.342Z,14.10
2023-03-12T22:37:59.036Z,18.92
2023-03-12T22:40:26.030Z,10.07
2023-03-12T22:42:55.409Z,10.60
2023-03-12T22:45:22.122Z,17.67
2023-03-12T22:47:48.765Z,17.23
2023-03-12T22:50:15.638Z,14.13
2023-03-12T22:52:42.306Z,12.93
2023-03-12T22:55:09.599Z,14.65
2023-03-12T22:57:37.106Z,12.73
2023-03-12T23:00:08.761Z,21.63
2023-03-12T23:02:35.497Z,17.10
2023-03-12T23:05:02.355Z,13.80
2023-03-12T23:07:29.059Z,13.05
2023-03-12T23:09:55.732Z,21.20
2023-03-12T23:12:22.371Z,13.52
2023-03-12T23:14:49.218Z,13.25
2023-03-12T23:17:17.225Z,16.70
2023-03-12T23:19:43.887Z,16.65
2023-03-12T23:22:11.048Z,15.10
2023-03-12T23:24:37.762Z,17.60
2023-03-12T23:27:04.998Z,15.73
2023-03-12T23:29:32.370Z,15.02
2023-03-12T23:31:59.110Z,16.88
2023-03-12T23:34:27.461Z,17.57
2023-03-12T23:36:54.193Z,12.93
2023-03-12T23:39:20.802Z,14.00
2023-03-12T23:41:47.411Z,12.23
2023-03-12T23:44:14.047Z,14.73
2023-03-12T23:46:40.682Z,21.50
2023-03-12T23:49:07.342Z,18.23
2023-03-12T23:51:35.348Z,19.60
2023-03-12T23:54:03.885Z,12.13
2023-03-12T23:56:33.118Z,15.02
2023-03-12T23:58:59.864Z,12.17
